Terminal Aerodrome Forecast
Issued by NWS

Home | Current Version | Previous Version | Text Only | Print | Product List | Glossary On
Versions: 1 2 3 4 5 6 7 8 9 10 11 12 13 14 15 16 17 18 19 20
000
FTAK31 PAJN 271131
TAFASI
TAF
PASI 271131Z 2712/2812 10005KT P6SM VCSH FEW004 OVC035
      TEMPO 2712/2714 BKN003 OVC040
     FM271500 14008KT 4SM -RA BR FEW005 BKN015 OVC025
     FM272000 15009KT 4SM RA BR BKN008 OVC015 WS020/15030KT
     FM280300 18008KT 6SM -RA BR OVC015
     FM280900 21006KT P6SM -SHRA OVC015=

USA.gov is the U.S. government's official web portal to all federal, state and local government web resources and services.